KCEY/CEY METAR and TAF weather

Enter ICAO airport designator
Station Type Date Time Source
KCEY METAR 2019/04/25 22:15 UTC NOAA

KCEY 252215Z AUTO 17006KT 140V220 10SM OVC027 19/16 A2968 RMK AO1


Station Type Date Time Source
KCEY Decoded METAR 2019/04/25 22:15 UTC NOAA

Station name not available
Apr 25, 2019 - 06:15 PM EDT / 2019.04.25 2215 UTC
Wind: from the S (170 degrees) at 7 MPH (6 KT) (direction variable):0
Visibility: 10 mile(s):0
Sky conditions: overcast
Temperature: 66 F (19 C)
Dew Point: 60 F (16 C)
Relative Humidity: 82%
Pressure (altimeter): 29.68 in. Hg (1005 hPa)
ob: KCEY 252215Z AUTO 17006KT 140V220 10SM OVC027 19/16 A2968 RMK AO1
cycle: 22

Station Type Date Time Source
KCEY TAF UTC NOAA

Error!

Example: see airport list